createdAt,value
2018-06-18T00:01:57.735Z,101561.76
2018-06-18T00:04:26.100Z,101566.61
2018-06-18T00:06:54.511Z,101571.45
2018-06-18T00:09:22.964Z,101562.59
2018-06-18T00:11:51.398Z,101563.25
2018-06-18T00:14:19.781Z,101561.77
2018-06-18T00:16:48.134Z,101570.47
2018-06-18T00:19:16.547Z,101572.65
2018-06-18T00:21:44.952Z,101575.97
2018-06-18T00:24:13.359Z,101577.31
2018-06-18T00:26:41.791Z,101582.80
2018-06-18T00:29:10.224Z,101576.81
2018-06-18T00:31:38.636Z,101567.61
2018-06-18T00:34:06.980Z,101558.25
2018-06-18T00:36:35.400Z,101552.41
2018-06-18T00:39:04.916Z,101559.09
2018-06-18T00:41:33.307Z,101556.27
2018-06-18T00:44:01.635Z,101555.27
2018-06-18T00:46:30.088Z,101548.94
2018-06-18T00:48:58.500Z,101550.58
2018-06-18T00:51:26.907Z,101550.91
2018-06-18T00:53:56.411Z,101553.89
2018-06-18T00:56:24.795Z,101544.88
2018-06-18T00:58:53.175Z,101545.22
2018-06-18T01:01:21.529Z,101548.73
2018-06-18T01:03:49.935Z,101545.37
2018-06-18T01:06:18.281Z,101544.88
2018-06-18T01:08:46.640Z,101543.88
2018-06-18T01:11:15.048Z,101536.52
2018-06-18T01:13:43.459Z,101531.52
2018-06-18T01:16:11.860Z,101527.50
2018-06-18T01:18:40.181Z,101515.13
2018-06-18T01:21:08.558Z,101518.15
2018-06-18T01:23:57.859Z,101526.02
2018-06-18T01:26:29.985Z,101527.20
2018-06-18T01:29:01.195Z,101542.90
2018-06-18T01:31:35.648Z,101532.51
2018-06-18T01:34:06.924Z,101536.52
2018-06-18T01:36:35.901Z,101536.02
2018-06-18T01:39:07.051Z,101535.71
2018-06-18T01:41:35.600Z,101531.86
2018-06-18T01:44:04.519Z,101535.22
2018-06-18T01:46:35.895Z,101535.56
2018-06-18T01:49:06.821Z,101537.74
2018-06-18T01:51:35.173Z,101542.74
2018-06-18T01:54:03.563Z,101544.58
2018-06-18T01:56:31.952Z,101534.23
2018-06-18T01:59:00.367Z,101531.55
2018-06-18T02:01:28.762Z,101535.91
2018-06-18T02:03:57.107Z,101536.59
2018-06-18T02:06:25.513Z,101536.09
2018-06-18T02:08:53.983Z,101535.26
2018-06-18T02:11:22.390Z,101525.21
2018-06-18T02:13:50.792Z,101531.74
2018-06-18T02:16:19.262Z,101532.23
2018-06-18T02:18:47.591Z,101528.04
2018-06-18T02:21:16.027Z,101524.53
2018-06-18T02:23:44.603Z,101528.19
2018-06-18T02:26:13.091Z,101525.52
2018-06-18T02:28:46.838Z,101521.02
2018-06-18T02:31:20.558Z,101524.72
2018-06-18T02:33:54.200Z,101513.52
2018-06-18T02:36:28.034Z,101518.72
2018-06-18T02:39:01.884Z,101512.03
2018-06-18T02:41:30.280Z,101518.06
2018-06-18T02:43:58.675Z,101517.91
2018-06-18T02:46:27.008Z,101520.09
2018-06-18T02:48:55.391Z,101518.59
2018-06-18T02:51:23.712Z,101527.12
2018-06-18T02:53:52.108Z,101532.47
2018-06-18T02:56:38.919Z,101527.95
2018-06-18T02:59:07.295Z,101517.57
2018-06-18T03:01:35.687Z,101516.23
2018-06-18T03:04:04.123Z,101521.08
2018-06-18T03:06:32.491Z,101528.45
2018-06-18T03:09:00.930Z,101528.11
2018-06-18T03:11:29.335Z,101526.77
2018-06-18T03:13:57.743Z,101524.59
2018-06-18T03:16:26.128Z,101524.45
2018-06-18T03:19:00.152Z,101518.26
2018-06-18T03:22:33.571Z,101523.11
2018-06-18T03:25:07.307Z,101529.61
2018-06-18T03:27:40.999Z,101526.44
2018-06-18T03:30:09.384Z,101530.29
2018-06-18T03:32:37.871Z,101529.80
2018-06-18T03:35:06.339Z,101539.16
2018-06-18T03:37:34.688Z,101532.97
2018-06-18T03:40:03.103Z,101537.13
2018-06-18T03:42:31.588Z,101532.97
2018-06-18T03:45:07.215Z,101529.95
2018-06-18T03:47:35.616Z,101532.63
2018-06-18T03:50:04.224Z,101527.27
2018-06-18T03:52:32.695Z,101529.61
2018-06-18T03:55:03.756Z,101533.62
2018-06-18T03:57:32.437Z,101528.11
2018-06-18T04:00:00.853Z,101531.63
2018-06-18T04:02:40.367Z,101530.95
2018-06-18T04:05:15.016Z,101535.64
2018-06-18T04:07:49.495Z,101541.18
2018-06-18T04:10:23.139Z,101533.66
2018-06-18T04:12:51.456Z,101536.33
2018-06-18T04:15:19.893Z,101540.68
2018-06-18T04:17:48.262Z,101544.34
2018-06-18T04:20:16.667Z,101543.02
2018-06-18T04:22:45.018Z,101539.31
2018-06-18T04:25:13.509Z,101542.67
2018-06-18T04:27:41.875Z,101540.64
2018-06-18T04:30:10.254Z,101546.83
2018-06-18T04:32:38.596Z,101546.34
2018-06-18T04:35:08.661Z,101549.16
2018-06-18T04:37:37.995Z,101557.19
2018-06-18T04:40:07.216Z,101554.02
2018-06-18T04:42:40.810Z,101551.53
2018-06-18T04:45:14.479Z,101553.06
2018-06-18T04:47:47.964Z,101551.07
2018-06-18T04:50:21.755Z,101551.91
2018-06-18T04:52:50.244Z,101552.75
2018-06-18T04:55:18.694Z,101552.56
2018-06-18T04:57:47.031Z,101552.91
2018-06-18T05:00:39.863Z,101551.07
2018-06-18T05:03:08.199Z,101553.25
2018-06-18T05:05:36.657Z,101555.77
2018-06-18T05:08:18.476Z,101557.45
2018-06-18T05:10:47.702Z,101543.89
2018-06-18T05:13:16.115Z,101545.72
2018-06-18T05:15:45.379Z,101551.41
2018-06-18T05:18:13.711Z,101555.42
2018-06-18T05:20:42.218Z,101561.27
2018-06-18T05:23:15.860Z,101564.29
2018-06-18T05:25:44.613Z,101573.00
2018-06-18T05:28:13.224Z,101572.66
2018-06-18T05:30:41.608Z,101568.80
2018-06-18T05:33:10.002Z,101560.62
2018-06-18T05:35:39.108Z,101555.08
2018-06-18T05:38:13.682Z,101558.30
2018-06-18T05:40:42.062Z,101572.20
2018-06-18T05:43:11.063Z,101558.17
2018-06-18T05:45:39.407Z,101565.89
2018-06-18T05:48:07.753Z,101559.58
2018-06-18T05:50:36.258Z,101564.58
2018-06-18T05:53:04.605Z,101573.30
2018-06-18T05:55:33.011Z,101572.30
2018-06-18T05:58:01.438Z,101571.64
2018-06-18T06:00:29.948Z,101576.69
2018-06-18T06:02:58.277Z,101572.67
2018-06-18T06:05:26.648Z,101572.86
2018-06-18T06:07:55.041Z,101571.86
2018-06-18T06:10:23.564Z,101571.18
2018-06-18T06:12:52.060Z,101570.34
2018-06-18T06:15:20.415Z,101569.69
2018-06-18T06:17:48.780Z,101567.04
2018-06-18T06:20:17.090Z,101569.90
2018-06-18T06:22:45.480Z,101568.78
2018-06-18T06:25:13.861Z,101565.79
2018-06-18T06:27:42.224Z,101564.45
2018-06-18T06:30:10.625Z,101571.66
2018-06-18T06:32:38.993Z,101577.20
2018-06-18T06:35:16.894Z,101577.86
2018-06-18T06:37:45.436Z,101574.84
2018-06-18T06:40:13.768Z,101577.86
2018-06-18T06:42:42.214Z,101573.50
2018-06-18T06:45:10.542Z,101577.02
2018-06-18T06:47:38.925Z,101582.37
2018-06-18T06:50:07.303Z,101585.89
2018-06-18T06:52:35.611Z,101593.08
2018-06-18T06:55:04.044Z,101591.24
2018-06-18T06:57:33.052Z,101588.22
2018-06-18T07:00:02.233Z,101599.27
2018-06-18T07:02:30.612Z,101602.98
2018-06-18T07:04:58.997Z,101601.95
2018-06-18T07:07:27.577Z,101608.98
2018-06-18T07:09:55.951Z,101608.98
2018-06-18T07:12:24.263Z,101607.98
2018-06-18T07:14:52.635Z,101608.83
2018-06-18T07:17:21.044Z,101613.19
2018-06-18T07:19:49.356Z,101606.00
2018-06-18T07:22:17.874Z,101607.36
2018-06-18T07:24:46.292Z,101600.98
2018-06-18T07:27:14.665Z,101601.66
2018-06-18T07:29:42.975Z,101597.64
2018-06-18T07:32:11.347Z,101603.37
2018-06-18T07:34:39.755Z,101604.55
2018-06-18T07:37:08.584Z,101601.34
2018-06-18T07:39:36.909Z,101605.36
2018-06-18T07:42:05.268Z,101612.39
2018-06-18T07:44:37.714Z,101614.42
2018-06-18T07:47:06.108Z,101620.80
2018-06-18T07:49:34.516Z,101622.14
2018-06-18T07:52:02.921Z,101631.02
2018-06-18T07:54:31.296Z,101623.14
2018-06-18T07:56:59.731Z,101626.50
2018-06-18T07:59:28.688Z,101621.48
2018-06-18T08:01:57.251Z,101609.43
2018-06-18T08:04:25.634Z,101607.74
2018-06-18T08:06:54.275Z,101607.59
2018-06-18T08:09:22.778Z,101599.21
2018-06-18T08:11:51.155Z,101601.73
2018-06-18T08:14:19.495Z,101608.77
2018-06-18T08:16:47.958Z,101600.73
2018-06-18T08:19:16.343Z,101602.44
2018-06-18T08:21:44.664Z,101606.81
2018-06-18T08:24:13.006Z,101601.61
2018-06-18T08:26:41.614Z,101603.81
2018-06-18T08:29:09.986Z,101599.47
2018-06-18T08:31:38.450Z,101598.65
2018-06-18T08:34:06.763Z,101601.81
2018-06-18T08:36:35.151Z,101610.72
2018-06-18T08:39:03.701Z,101612.08
2018-06-18T08:41:32.071Z,101613.59
2018-06-18T08:44:00.381Z,101616.59
2018-06-18T08:46:28.731Z,101619.28
2018-06-18T08:49:02.458Z,101612.92
2018-06-18T08:51:36.055Z,101609.27
2018-06-18T08:54:09.639Z,101608.60
2018-06-18T08:56:43.219Z,101609.13
2018-06-18T08:59:16.654Z,101610.63
2018-06-18T09:01:45.812Z,101611.83
2018-06-18T09:04:22.198Z,101612.32
2018-06-18T09:06:50.807Z,101608.31
2018-06-18T09:09:19.171Z,101604.81
2018-06-18T09:11:47.588Z,101615.02
2018-06-18T09:14:16.024Z,101609.99
2018-06-18T09:16:44.436Z,101603.63
2018-06-18T09:19:12.780Z,101603.27
2018-06-18T09:21:41.981Z,101600.25
2018-06-18T09:24:10.287Z,101601.27
2018-06-18T09:26:38.679Z,101604.11
2018-06-18T09:29:07.105Z,101602.27
2018-06-18T09:31:35.550Z,101612.49
2018-06-18T09:34:03.967Z,101608.30
2018-06-18T09:36:32.373Z,101599.91
2018-06-18T09:39:00.732Z,101596.92
2018-06-18T09:41:29.277Z,101604.97
2018-06-18T09:43:57.688Z,101599.77
2018-06-18T09:46:26.519Z,101602.95
2018-06-18T09:49:00.394Z,101596.92
2018-06-18T09:51:34.089Z,101601.09
2018-06-18T09:54:07.708Z,101603.61
2018-06-18T09:56:41.335Z,101599.25
2018-06-18T09:59:15.124Z,101600.25
2018-06-18T10:01:43.544Z,101597.23
2018-06-18T10:04:11.859Z,101593.55
2018-06-18T10:06:40.524Z,101589.19
2018-06-18T10:09:10.353Z,101592.03
2018-06-18T10:11:38.815Z,101595.23
2018-06-18T10:14:09.721Z,101594.89
2018-06-18T10:16:38.131Z,101583.66
2018-06-18T10:19:06.475Z,101583.80
2018-06-18T10:21:34.783Z,101585.81
2018-06-18T10:24:03.159Z,101586.83
2018-06-18T10:26:31.488Z,101590.81
2018-06-18T10:28:59.853Z,101591.98
2018-06-18T10:31:28.175Z,101594.16
2018-06-18T10:34:01.786Z,101588.80
2018-06-18T10:36:35.595Z,101582.92
2018-06-18T10:39:09.262Z,101575.38
2018-06-18T10:41:42.899Z,101586.78
2018-06-18T10:44:11.322Z,101580.08
2018-06-18T10:46:39.672Z,101570.68
2018-06-18T10:49:08.009Z,101584.09
2018-06-18T10:51:36.353Z,101575.36
2018-06-18T10:54:04.754Z,101581.53
2018-06-18T10:56:33.152Z,101580.36
2018-06-18T10:59:01.556Z,101579.69
2018-06-18T11:01:31.460Z,101582.08
2018-06-18T11:04:00.043Z,101581.75
2018-06-18T11:06:33.788Z,101581.08
2018-06-18T11:09:02.195Z,101581.12
2018-06-18T11:11:30.983Z,101578.43
2018-06-18T11:14:01.142Z,101579.06
2018-06-18T11:16:29.830Z,101586.62
2018-06-18T11:19:03.567Z,101593.50
2018-06-18T11:21:37.083Z,101587.66
2018-06-18T11:24:10.999Z,101593.53
2018-06-18T11:26:54.047Z,101592.86
2018-06-18T11:29:38.346Z,101593.23
2018-06-18T11:32:06.796Z,101585.34
2018-06-18T11:34:35.160Z,101589.37
2018-06-18T11:37:03.577Z,101591.55
2018-06-18T11:39:32.037Z,101588.87
2018-06-18T11:42:00.505Z,101589.84
2018-06-18T11:44:28.862Z,101590.18
2018-06-18T11:46:57.240Z,101595.05
2018-06-18T11:49:25.664Z,101587.83
2018-06-18T11:51:54.059Z,101590.52
2018-06-18T11:54:22.517Z,101596.39
2018-06-18T11:56:50.860Z,101610.31
2018-06-18T11:59:24.539Z,101599.91
2018-06-18T12:01:58.396Z,101598.23
2018-06-18T12:04:32.080Z,101602.29
2018-06-18T12:07:05.751Z,101602.92
2018-06-18T12:09:38.661Z,101599.56
2018-06-18T12:12:07.042Z,101599.56
2018-06-18T12:14:35.441Z,101600.58
2018-06-18T12:17:03.767Z,101604.09
2018-06-18T12:19:32.161Z,101597.89
2018-06-18T12:22:00.523Z,101597.22
2018-06-18T12:24:28.931Z,101605.47
2018-06-18T12:26:57.280Z,101603.63
2018-06-18T12:29:25.700Z,101601.58
2018-06-18T12:31:54.143Z,101601.45
2018-06-18T12:34:22.498Z,101603.97
2018-06-18T12:36:50.893Z,101608.49
2018-06-18T12:39:19.273Z,101610.34
2018-06-18T12:42:02.174Z,101609.16
2018-06-18T12:44:37.583Z,101613.66
2018-06-18T12:47:11.580Z,101605.10
2018-06-18T12:49:45.052Z,101606.95
2018-06-18T12:52:18.719Z,101606.78
2018-06-18T12:54:52.429Z,101605.94
2018-06-18T12:57:20.899Z,101601.58
2018-06-18T12:59:49.263Z,101599.56
2018-06-18T13:02:25.663Z,101602.95
2018-06-18T13:04:58.261Z,101602.94
2018-06-18T13:07:27.340Z,101600.27
2018-06-18T13:09:56.567Z,101598.25
2018-06-18T13:12:24.947Z,101610.63
2018-06-18T13:14:53.339Z,101613.16
2018-06-18T13:17:23.093Z,101603.63
2018-06-18T13:19:51.443Z,101605.28
2018-06-18T13:22:22.819Z,101604.27
2018-06-18T13:24:51.200Z,101600.41
2018-06-18T13:27:19.677Z,101602.93
2018-06-18T13:29:48.071Z,101602.93
2018-06-18T13:32:16.477Z,101602.09
2018-06-18T13:34:44.804Z,101601.92
2018-06-18T13:37:18.411Z,101598.91
2018-06-18T13:39:51.783Z,101605.64
2018-06-18T13:42:25.787Z,101606.81
2018-06-18T13:44:59.448Z,101609.30
2018-06-18T13:47:33.165Z,101611.31
2018-06-18T13:50:01.567Z,101615.33
2018-06-18T13:52:29.965Z,101614.16
2018-06-18T13:54:58.260Z,101613.82
2018-06-18T13:57:26.634Z,101616.70
2018-06-18T13:59:55.260Z,101625.05
2018-06-18T14:02:23.660Z,101618.38
2018-06-18T14:04:52.047Z,101624.58
2018-06-18T14:07:20.417Z,101631.45
2018-06-18T14:09:48.735Z,101629.09
2018-06-18T14:12:17.158Z,101627.75
2018-06-18T14:14:45.747Z,101617.89
2018-06-18T14:17:14.197Z,101621.05
2018-06-18T14:20:49.469Z,101619.70
2018-06-18T14:23:17.959Z,101622.39
2018-06-18T14:25:46.311Z,101621.38
2018-06-18T14:28:14.693Z,101629.27
2018-06-18T14:30:48.475Z,101619.38
2018-06-18T14:33:22.298Z,101627.39
2018-06-18T14:35:55.954Z,101611.95
2018-06-18T14:38:29.689Z,101613.63
2018-06-18T14:40:58.090Z,101599.84
2018-06-18T14:43:26.496Z,101604.70
2018-06-18T14:45:54.964Z,101599.98
2018-06-18T14:48:23.372Z,101605.48
2018-06-18T14:50:51.729Z,101597.70
2018-06-18T14:53:20.056Z,101590.94
2018-06-18T14:55:54.921Z,101584.47
2018-06-18T14:58:23.324Z,101585.22
2018-06-18T15:00:51.783Z,101589.74
2018-06-18T15:03:20.136Z,101586.39
2018-06-18T15:05:48.566Z,101581.23
2018-06-18T15:08:17.032Z,101581.27
2018-06-18T15:10:50.721Z,101578.80
2018-06-18T15:13:19.119Z,101580.50
2018-06-18T15:15:52.765Z,101573.81
2018-06-18T15:18:21.146Z,101580.54
2018-06-18T15:20:49.667Z,101576.02
2018-06-18T15:23:18.135Z,101580.22
2018-06-18T15:25:48.690Z,101579.22
2018-06-18T15:28:17.028Z,101573.22
2018-06-18T15:30:45.423Z,101577.21
2018-06-18T15:33:13.843Z,101576.37
2018-06-18T15:35:42.249Z,101580.23
2018-06-18T15:38:10.790Z,101574.86
2018-06-18T15:40:39.060Z,101575.36
2018-06-18T15:43:07.470Z,101574.70
2018-06-18T15:45:35.868Z,101569.33
2018-06-18T15:48:04.323Z,101565.30
2018-06-18T15:50:32.738Z,101563.45
2018-06-18T15:53:01.060Z,101567.85
2018-06-18T15:55:29.613Z,101559.96
2018-06-18T15:57:57.960Z,101555.42
2018-06-18T16:00:26.337Z,101543.47
2018-06-18T16:02:54.737Z,101548.16
2018-06-18T16:05:23.186Z,101539.58
2018-06-18T16:07:51.674Z,101533.18
2018-06-18T16:10:20.209Z,101538.87
2018-06-18T16:12:48.619Z,101531.63
2018-06-18T16:15:17.016Z,101533.11
2018-06-18T16:17:45.382Z,101534.05
2018-06-18T16:20:13.758Z,101534.02
2018-06-18T16:22:42.130Z,101534.67
2018-06-18T16:25:10.607Z,101526.61
2018-06-18T16:27:38.968Z,101532.95
2018-06-18T16:30:07.503Z,101534.30
2018-06-18T16:32:36.224Z,101533.94
2018-06-18T16:35:04.749Z,101537.63
2018-06-18T16:37:33.099Z,101530.88
2018-06-18T16:40:01.455Z,101539.30
2018-06-18T16:42:29.845Z,101527.86
2018-06-18T16:44:58.247Z,101534.93
2018-06-18T16:47:26.792Z,101522.83
2018-06-18T16:49:55.307Z,101524.70
2018-06-18T16:52:23.685Z,101525.75
2018-06-18T16:54:52.180Z,101527.50
2018-06-18T16:57:20.631Z,101524.17
2018-06-18T16:59:48.965Z,101527.20
2018-06-18T17:02:17.396Z,101526.86
2018-06-18T17:04:45.893Z,101530.59
2018-06-18T17:07:14.338Z,101525.39
2018-06-18T17:09:42.667Z,101540.05
2018-06-18T17:12:11.087Z,101542.41
2018-06-18T17:14:39.472Z,101539.75
2018-06-18T17:17:07.826Z,101538.25
2018-06-18T17:19:36.528Z,101528.66
2018-06-18T17:22:05.112Z,101542.41
2018-06-18T17:24:33.506Z,101528.47
2018-06-18T17:27:01.908Z,101535.97
2018-06-18T17:29:30.432Z,101541.34
2018-06-18T17:31:58.831Z,101534.25
2018-06-18T17:34:27.279Z,101528.05
2018-06-18T17:36:55.691Z,101527.31
2018-06-18T17:39:24.100Z,101528.37
2018-06-18T17:41:52.460Z,101523.27
2018-06-18T17:44:20.845Z,101523.98
2018-06-18T17:46:49.315Z,101526.34
2018-06-18T17:49:17.747Z,101529.52
2018-06-18T17:51:46.571Z,101524.29
2018-06-18T17:54:14.964Z,101523.11
2018-06-18T17:56:43.332Z,101519.34
2018-06-18T17:59:11.718Z,101517.67
2018-06-18T18:01:40.090Z,101518.16
2018-06-18T18:04:08.487Z,101518.97
2018-06-18T18:06:37.757Z,101516.89
2018-06-18T18:09:07.935Z,101531.19
2018-06-18T18:11:36.379Z,101537.34
2018-06-18T18:14:04.906Z,101540.12
2018-06-18T18:16:33.315Z,101534.25
2018-06-18T18:19:01.704Z,101528.80
2018-06-18T18:21:30.133Z,101535.28
2018-06-18T18:23:58.572Z,101542.92
2018-06-18T18:26:26.989Z,101545.69
2018-06-18T18:28:55.323Z,101540.51
2018-06-18T18:31:23.688Z,101542.26
2018-06-18T18:33:52.062Z,101545.14
2018-06-18T18:36:20.462Z,101543.98
2018-06-18T18:38:48.934Z,101544.04
2018-06-18T18:41:17.393Z,101539.19
2018-06-18T18:43:45.833Z,101532.66
2018-06-18T18:46:14.153Z,101532.34
2018-06-18T18:48:42.531Z,101543.61
2018-06-18T18:51:11.054Z,101538.42
2018-06-18T18:53:39.362Z,101539.98
2018-06-18T18:56:19.056Z,101538.99
2018-06-18T18:58:56.524Z,101545.55
2018-06-18T19:01:25.839Z,101546.06
2018-06-18T19:03:57.185Z,101550.47
2018-06-18T19:06:25.500Z,101551.47
2018-06-18T19:08:53.846Z,101553.66
2018-06-18T19:11:22.274Z,101556.86
2018-06-18T19:13:50.631Z,101565.59
2018-06-18T19:16:19.035Z,101563.24
2018-06-18T19:18:53.279Z,101558.55
2018-06-18T19:21:21.663Z,101556.88
2018-06-18T19:23:50.017Z,101557.20
2018-06-18T19:26:18.446Z,101562.06
2018-06-18T19:28:46.832Z,101561.23
2018-06-18T19:31:17.535Z,101561.23
2018-06-18T19:34:08.535Z,101563.78
2018-06-18T19:36:37.405Z,101565.47
2018-06-18T19:39:08.320Z,101559.94
2018-06-18T19:41:36.668Z,101562.63
2018-06-18T19:44:05.049Z,101557.59
2018-06-18T19:46:54.059Z,101563.67
2018-06-18T19:49:22.428Z,101563.00
2018-06-18T19:51:50.872Z,101564.01
2018-06-18T19:54:22.096Z,101567.36
2018-06-18T19:56:50.548Z,101575.41
2018-06-18T19:59:18.923Z,101574.78
2018-06-18T20:01:47.287Z,101573.77
2018-06-18T20:04:15.630Z,101576.09
2018-06-18T20:06:44.068Z,101576.25
2018-06-18T20:09:13.169Z,101583.47
2018-06-18T20:11:42.153Z,101592.69
2018-06-18T20:14:10.447Z,101597.92
2018-06-18T20:16:38.813Z,101599.59
2018-06-18T20:19:07.257Z,101597.91
2018-06-18T20:21:36.698Z,101611.33
2018-06-18T20:24:05.192Z,101616.02
2018-06-18T20:26:33.555Z,101612.16
2018-06-18T20:29:01.978Z,101620.37
2018-06-18T20:31:30.444Z,101621.21
2018-06-18T20:33:59.063Z,101621.21
2018-06-18T20:36:27.925Z,101616.55
2018-06-18T20:38:56.285Z,101624.76
2018-06-18T20:41:24.952Z,101626.59
2018-06-18T20:44:02.752Z,101629.95
2018-06-18T20:46:33.650Z,101633.30
2018-06-18T20:49:02.114Z,101638.48
2018-06-18T20:51:30.551Z,101647.53
2018-06-18T20:53:58.932Z,101650.20
2018-06-18T20:56:27.352Z,101648.53
2018-06-18T20:58:55.739Z,101653.25
2018-06-18T21:01:24.241Z,101654.41
2018-06-18T21:03:52.617Z,101660.78
2018-06-18T21:06:20.974Z,101666.30
2018-06-18T21:08:49.396Z,101651.22
2018-06-18T21:11:18.013Z,101656.41
2018-06-18T21:13:46.519Z,101662.93
2018-06-18T21:16:14.998Z,101666.27
2018-06-18T21:18:43.391Z,101669.31
2018-06-18T21:21:12.309Z,101668.63
2018-06-18T21:23:40.886Z,101672.48
2018-06-18T21:26:09.511Z,101663.91
2018-06-18T21:28:38.039Z,101682.68
2018-06-18T21:31:06.660Z,101676.30
2018-06-18T21:33:35.091Z,101677.80
2018-06-18T21:36:03.560Z,101673.97
2018-06-18T21:38:31.951Z,101678.16
2018-06-18T21:41:00.380Z,101683.34
2018-06-18T21:43:28.774Z,101688.86
2018-06-18T21:45:57.259Z,101686.84
2018-06-18T21:48:25.629Z,101691.52
2018-06-18T21:50:53.990Z,101686.94
2018-06-18T21:53:22.404Z,101688.47
2018-06-18T21:55:50.765Z,101685.95
2018-06-18T21:58:19.208Z,101687.63
2018-06-18T22:00:50.986Z,101686.10
2018-06-18T22:03:19.483Z,101692.98
2018-06-18T22:05:48.014Z,101688.28
2018-06-18T22:08:18.257Z,101688.63
2018-06-18T22:10:46.713Z,101692.16
2018-06-18T22:13:15.183Z,101689.62
2018-06-18T22:15:43.649Z,101684.95
2018-06-18T22:18:12.016Z,101690.13
2018-06-18T22:20:40.400Z,101687.97
2018-06-18T22:23:08.792Z,101692.80
2018-06-18T22:25:37.270Z,101692.30
2018-06-18T22:28:08.943Z,101688.97
2018-06-18T22:30:38.019Z,101687.79
2018-06-18T22:33:06.671Z,101691.97
2018-06-18T22:35:35.084Z,101692.47
2018-06-18T22:38:03.500Z,101693.47
2018-06-18T22:40:31.903Z,101693.12
2018-06-18T22:43:00.291Z,101689.61
2018-06-18T22:45:28.741Z,101692.10
2018-06-18T22:47:57.159Z,101695.94
2018-06-18T22:50:25.599Z,101702.14
2018-06-18T22:52:53.998Z,101700.28
2018-06-18T22:55:22.390Z,101703.59
2018-06-18T22:57:50.759Z,101708.61
2018-06-18T23:00:19.168Z,101712.78
2018-06-18T23:02:47.879Z,101712.94
2018-06-18T23:05:16.236Z,101712.75
2018-06-18T23:07:44.615Z,101710.23
2018-06-18T23:10:13.069Z,101707.86
2018-06-18T23:12:43.057Z,101717.05
2018-06-18T23:15:12.509Z,101707.52
2018-06-18T23:17:41.215Z,101709.02
2018-06-18T23:20:10.346Z,101705.80
2018-06-18T23:22:39.246Z,101712.81
2018-06-18T23:25:07.898Z,101709.45
2018-06-18T23:27:36.293Z,101709.11
2018-06-18T23:30:05.027Z,101712.78
2018-06-18T23:32:33.417Z,101711.44
2018-06-18T23:35:01.761Z,101717.95
2018-06-18T23:37:30.167Z,101716.45
2018-06-18T23:39:58.563Z,101712.25
2018-06-18T23:42:26.988Z,101718.41
2018-06-18T23:44:55.379Z,101726.09
2018-06-18T23:47:23.758Z,101721.70
2018-06-18T23:49:52.123Z,101722.03
2018-06-18T23:52:20.529Z,101719.66
2018-06-18T23:54:48.933Z,101719.44
2018-06-18T23:57:17.338Z,101716.08
2018-06-18T23:59:46.121Z,101718.59
